createdAt,value
2018-01-12T00:04:56.413Z,80.47
2018-01-12T00:05:30.092Z,87.97
2018-01-12T00:06:03.761Z,85.35
2018-01-12T00:06:38.198Z,84.30
2018-01-12T00:07:11.875Z,94.90
2018-01-12T00:07:46.357Z,96.97
2018-01-12T00:08:20.021Z,89.65
2018-01-12T00:08:53.707Z,91.90
2018-01-12T00:09:27.363Z,96.25
2018-01-12T00:10:01.024Z,96.07
2018-01-12T00:10:35.455Z,91.37
2018-01-12T00:11:09.115Z,91.05
2018-01-12T00:11:43.558Z,92.20
2018-01-12T00:12:17.239Z,96.10
2018-01-12T00:12:51.059Z,88.62
2018-01-12T00:13:24.730Z,92.55
2018-01-12T00:13:58.386Z,94.65
2018-01-12T00:14:32.848Z,91.53
2018-01-12T00:15:06.572Z,86.80
2018-01-12T00:15:41.766Z,88.97
2018-01-12T00:16:15.443Z,95.30
2018-01-12T00:16:49.114Z,94.18
2018-01-12T00:17:22.803Z,88.70
2018-01-12T00:17:56.510Z,98.97
2018-01-12T00:18:30.181Z,88.87
2018-01-12T00:19:03.838Z,88.93
2018-01-12T00:19:38.274Z,86.25
2018-01-12T00:20:11.992Z,83.55
2018-01-12T00:20:45.663Z,92.40
2018-01-12T00:21:19.366Z,93.87
2018-01-12T00:21:53.042Z,91.82
2018-01-12T00:22:26.725Z,89.07
2018-01-12T00:23:00.438Z,87.18
2018-01-12T00:23:34.136Z,81.40
2018-01-12T00:24:07.818Z,87.60
2018-01-12T00:24:41.514Z,93.12
2018-01-12T00:25:15.181Z,94.82
2018-01-12T00:25:48.857Z,90.78
2018-01-12T00:26:22.634Z,94.10
2018-01-12T00:26:57.071Z,85.20
2018-01-12T00:27:30.758Z,87.93
2018-01-12T00:28:04.478Z,93.85
2018-01-12T00:28:38.176Z,87.03
2018-01-12T00:29:11.881Z,86.97
2018-01-12T00:29:45.571Z,90.18
2018-01-12T00:30:19.236Z,88.37
2018-01-12T00:30:52.920Z,93.97
2018-01-12T00:31:26.586Z,90.87
2018-01-12T00:32:00.286Z,88.47
2018-01-12T00:32:33.966Z,85.60
2018-01-12T00:33:07.666Z,88.50
2018-01-12T00:33:41.342Z,98.37
2018-01-12T00:34:15.027Z,88.40
2018-01-12T00:34:48.722Z,86.12
2018-01-12T00:35:22.493Z,85.15
2018-01-12T00:35:56.922Z,97.32
2018-01-12T00:36:30.604Z,82.47
2018-01-12T00:37:04.707Z,96.68
2018-01-12T00:37:38.362Z,87.62
2018-01-12T00:38:11.886Z,91.93
2018-01-12T00:38:45.366Z,85.70
2018-01-12T00:39:18.857Z,84.07
2018-01-12T00:39:52.372Z,87.00
2018-01-12T00:40:25.862Z,83.12
2018-01-12T00:40:59.340Z,80.50
2018-01-12T00:41:32.853Z,87.45
2018-01-12T00:42:06.328Z,82.22
2018-01-12T00:42:39.829Z,90.03
2018-01-12T00:43:13.538Z,90.03
2018-01-12T00:43:47.791Z,88.75
2018-01-12T00:44:21.273Z,84.53
2018-01-12T00:44:54.766Z,89.93
2018-01-12T00:45:28.243Z,87.20
2018-01-12T00:46:01.731Z,77.57
2018-01-12T00:46:35.218Z,93.07
2018-01-12T00:47:08.703Z,87.37
2018-01-12T00:47:42.370Z,88.93
2018-01-12T00:48:15.903Z,88.30
2018-01-12T00:48:49.399Z,82.03
2018-01-12T00:49:22.890Z,82.95
2018-01-12T00:49:56.395Z,88.22
2018-01-12T00:50:30.662Z,79.35
2018-01-12T00:51:04.164Z,89.97
2018-01-12T00:51:37.632Z,82.65
2018-01-12T00:52:11.122Z,85.68
2018-01-12T00:52:44.611Z,83.78
2018-01-12T00:53:18.126Z,80.12
2018-01-12T00:53:52.370Z,81.30
2018-01-12T00:54:25.865Z,84.57
2018-01-12T00:54:59.645Z,82.80
2018-01-12T00:55:33.132Z,83.87
2018-01-12T00:56:06.615Z,80.00
2018-01-12T00:56:40.100Z,79.03
2018-01-12T00:57:13.602Z,84.55
2018-01-12T00:57:47.099Z,85.28
2018-01-12T00:58:20.615Z,88.18
2018-01-12T00:58:54.858Z,85.45
2018-01-12T00:59:28.349Z,84.32
2018-01-12T01:00:02.023Z,82.75
2018-01-12T01:00:35.764Z,91.55
2018-01-12T01:01:09.444Z,76.75
2018-01-12T01:01:43.104Z,79.65
2018-01-12T01:02:16.784Z,86.55
2018-01-12T01:02:50.477Z,87.75
2018-01-12T01:03:24.190Z,82.50
2018-01-12T01:03:57.858Z,86.12
2018-01-12T01:04:31.540Z,84.37
2018-01-12T01:05:04.890Z,86.15
2018-01-12T01:05:39.330Z,82.88
2018-01-12T01:06:13.014Z,79.00
2018-01-12T01:06:46.704Z,86.60
2018-01-12T01:07:20.365Z,77.45
2018-01-12T01:07:54.029Z,82.03
2018-01-12T01:08:27.720Z,83.40
2018-01-12T01:09:01.379Z,89.30
2018-01-12T01:09:35.061Z,82.78
2018-01-12T01:10:08.745Z,84.05
2018-01-12T01:10:42.422Z,81.22
2018-01-12T01:11:16.091Z,87.93
2018-01-12T01:11:50.536Z,84.80
2018-01-12T01:12:23.888Z,86.60
2018-01-12T01:12:57.564Z,83.35
2018-01-12T01:13:32.017Z,84.80
2018-01-12T01:14:05.685Z,86.72
2018-01-12T01:14:39.354Z,85.12
2018-01-12T01:15:13.798Z,84.35
2018-01-12T01:15:47.474Z,85.32
2018-01-12T01:16:21.144Z,83.18
2018-01-12T01:16:55.589Z,83.72
2018-01-12T01:17:29.259Z,81.75
2018-01-12T01:18:02.949Z,81.60
2018-01-12T01:18:36.923Z,91.03
2018-01-12T01:19:11.364Z,83.53
2018-01-12T01:19:45.028Z,79.85
2018-01-12T01:20:19.490Z,84.68
2018-01-12T01:20:53.174Z,85.43
2018-01-12T01:21:26.851Z,82.50
2018-01-12T01:22:00.518Z,75.87
2018-01-12T01:22:34.183Z,76.05
2018-01-12T01:23:08.649Z,89.18
2018-01-12T01:23:42.342Z,80.25
2018-01-12T01:24:16.013Z,84.40
2018-01-12T01:24:49.695Z,92.68
2018-01-12T01:25:23.374Z,83.85
2018-01-12T01:25:57.042Z,83.82
2018-01-12T01:26:31.484Z,77.57
2018-01-12T01:27:05.175Z,85.47
2018-01-12T01:27:39.011Z,78.97
2018-01-12T01:28:12.698Z,82.25
2018-01-12T01:28:46.378Z,80.60
2018-01-12T01:29:20.060Z,81.50
2018-01-12T01:29:53.730Z,89.60
2018-01-12T01:30:27.419Z,86.18
2018-01-12T01:31:01.096Z,80.12
2018-01-12T01:31:34.790Z,93.03
2018-01-12T01:32:08.470Z,87.18
2018-01-12T01:32:42.153Z,84.25
2018-01-12T01:33:16.817Z,89.75
2018-01-12T01:33:50.517Z,86.95
2018-01-12T01:34:24.192Z,81.55
2018-01-12T01:34:57.878Z,90.07
2018-01-12T01:35:31.549Z,89.65
2018-01-12T01:36:05.241Z,91.25
2018-01-12T01:36:38.914Z,79.90
2018-01-12T01:37:12.278Z,86.40
2018-01-12T01:37:46.722Z,84.57
2018-01-12T01:38:20.398Z,91.97
2018-01-12T01:38:54.113Z,85.30
2018-01-12T01:39:27.790Z,88.10
2018-01-12T01:40:01.480Z,94.60
2018-01-12T01:40:35.158Z,100.80
2018-01-12T01:41:08.840Z,88.12
2018-01-12T01:41:42.515Z,90.25
2018-01-12T01:42:16.955Z,82.72
2018-01-12T01:42:50.639Z,99.55
2018-01-12T01:43:23.985Z,86.68
2018-01-12T01:43:58.444Z,89.10
2018-01-12T01:44:35.172Z,84.95
2018-01-12T01:45:08.502Z,81.45
2018-01-12T01:45:42.175Z,89.75
2018-01-12T01:46:15.853Z,89.40
2018-01-12T01:46:49.537Z,90.80
2018-01-12T01:47:23.227Z,90.12
2018-01-12T01:47:56.899Z,91.97
2018-01-12T01:48:41.630Z,88.82
2018-01-12T01:49:16.098Z,88.25
2018-01-12T01:49:49.450Z,82.60
2018-01-12T01:50:23.147Z,87.75
2018-01-12T01:50:56.817Z,87.05
2018-01-12T01:51:30.487Z,90.70
2018-01-12T01:52:04.151Z,99.32
2018-01-12T01:52:37.830Z,92.12
2018-01-12T01:53:11.494Z,83.80
2018-01-12T01:53:45.182Z,93.70
2018-01-12T01:54:18.887Z,84.15
2018-01-12T01:54:52.561Z,94.05
2018-01-12T01:55:26.238Z,88.90
2018-01-12T01:55:59.905Z,89.82
2018-01-12T01:56:34.346Z,94.93
2018-01-12T01:57:08.007Z,92.90
2018-01-12T01:57:42.442Z,87.45
2018-01-12T01:58:16.118Z,90.97
2018-01-12T01:58:49.790Z,96.78
2018-01-12T01:59:24.249Z,98.07
2018-01-12T01:59:57.914Z,96.82
2018-01-12T02:00:31.613Z,94.35
2018-01-12T02:01:05.302Z,91.37
2018-01-12T02:01:38.994Z,98.60
2018-01-12T02:02:12.662Z,103.80
2018-01-12T02:02:46.336Z,101.45
2018-01-12T02:03:20.779Z,86.85
2018-01-12T02:03:54.485Z,96.25
2018-01-12T02:04:28.182Z,88.75
2018-01-12T02:05:01.864Z,102.00
2018-01-12T02:05:35.535Z,106.18
2018-01-12T02:06:08.884Z,102.07
2018-01-12T02:06:43.318Z,95.20
2018-01-12T02:07:16.983Z,93.60
2018-01-12T02:07:51.440Z,101.62
2018-01-12T02:08:25.106Z,98.03
2018-01-12T02:08:58.765Z,89.03
2018-01-12T02:09:33.262Z,100.62
2018-01-12T02:10:06.300Z,99.32
2018-01-12T02:10:39.989Z,104.10
2018-01-12T02:11:13.662Z,89.00
2018-01-12T02:11:47.416Z,99.95
2018-01-12T02:12:21.862Z,107.10
2018-01-12T02:12:55.537Z,94.05
2018-01-12T02:13:29.204Z,87.75
2018-01-12T02:14:03.648Z,96.03
2018-01-12T02:14:37.355Z,104.18
2018-01-12T02:15:11.027Z,95.40
2018-01-12T02:15:44.689Z,105.22
2018-01-12T02:16:18.780Z,92.93
2018-01-12T02:16:53.214Z,85.15
2018-01-12T02:17:26.897Z,105.30
2018-01-12T02:18:00.601Z,103.68
2018-01-12T02:18:34.277Z,102.95
2018-01-12T02:19:07.948Z,90.80
2018-01-12T02:19:42.082Z,97.85
2018-01-12T02:20:15.430Z,97.43
2018-01-12T02:20:49.106Z,106.00
2018-01-12T02:21:22.770Z,108.95
2018-01-12T02:21:56.462Z,101.57
2018-01-12T02:22:30.140Z,102.03
2018-01-12T02:23:03.824Z,92.35
2018-01-12T02:23:37.516Z,104.60
2018-01-12T02:24:11.195Z,104.43
2018-01-12T02:24:44.895Z,104.32
2018-01-12T02:25:18.569Z,95.12
2018-01-12T02:25:52.250Z,101.68
2018-01-12T02:26:25.922Z,101.93
2018-01-12T02:27:00.366Z,103.90
2018-01-12T02:27:34.122Z,106.15
2018-01-12T02:28:07.808Z,92.10
2018-01-12T02:28:42.267Z,97.80
2018-01-12T02:29:15.951Z,101.05
2018-01-12T02:29:49.640Z,98.22
2018-01-12T02:30:23.325Z,102.22
2018-01-12T02:30:57.693Z,102.30
2018-01-12T02:31:32.144Z,106.63
2018-01-12T02:32:05.832Z,112.40
2018-01-12T02:32:39.516Z,107.57
2018-01-12T02:33:13.178Z,102.55
2018-01-12T02:33:47.817Z,102.93
2018-01-12T02:34:21.516Z,104.30
2018-01-12T02:34:55.209Z,105.32
2018-01-12T02:35:28.886Z,96.78
2018-01-12T02:36:02.558Z,103.07
2018-01-12T02:36:36.230Z,104.12
2018-01-12T02:37:10.678Z,108.00
2018-01-12T02:37:44.363Z,88.62
2018-01-12T02:38:18.036Z,90.70
2018-01-12T02:38:51.769Z,100.45
2018-01-12T02:39:26.353Z,95.30
2018-01-12T02:40:00.058Z,98.55
2018-01-12T02:40:33.902Z,98.30
2018-01-12T02:41:08.351Z,107.85
2018-01-12T02:41:42.034Z,104.95
2018-01-12T02:42:15.706Z,88.70
2018-01-12T02:42:49.381Z,98.28
2018-01-12T02:43:23.819Z,98.15
2018-01-12T02:43:59.665Z,91.78
2018-01-12T02:44:33.357Z,105.35
2018-01-12T02:45:07.054Z,98.80
2018-01-12T02:45:40.743Z,101.10
2018-01-12T02:46:14.418Z,91.25
2018-01-12T02:46:48.090Z,97.95
2018-01-12T02:47:21.774Z,94.28
2018-01-12T02:47:56.218Z,104.72
2018-01-12T02:48:29.915Z,91.15
2018-01-12T02:49:03.595Z,94.65
2018-01-12T02:49:37.289Z,101.28
2018-01-12T02:50:11.012Z,92.95
2018-01-12T02:50:44.682Z,87.82
2018-01-12T02:51:18.358Z,93.03
2018-01-12T02:51:52.053Z,82.03
2018-01-12T02:52:25.894Z,89.62
2018-01-12T02:53:00.341Z,97.43
2018-01-12T02:53:34.006Z,86.03
2018-01-12T02:54:07.674Z,91.72
2018-01-12T02:54:42.123Z,87.68
2018-01-12T02:55:15.835Z,100.28
2018-01-12T02:55:49.530Z,93.95
2018-01-12T02:56:23.219Z,91.68
2018-01-12T02:56:56.889Z,89.97
2018-01-12T02:57:30.570Z,92.40
2018-01-12T02:58:04.248Z,86.25
2018-01-12T02:58:37.926Z,94.28
2018-01-12T02:59:11.641Z,97.05
2018-01-12T02:59:45.335Z,97.30
2018-01-12T03:00:19.032Z,88.35
2018-01-12T03:00:52.763Z,83.62
2018-01-12T03:01:26.446Z,80.60
2018-01-12T03:02:00.125Z,83.70
2018-01-12T03:02:33.827Z,86.45
2018-01-12T03:03:07.505Z,89.95
2018-01-12T03:03:41.169Z,93.80
2018-01-12T03:04:14.855Z,93.80
2018-01-12T03:04:48.543Z,89.80
2018-01-12T03:05:22.228Z,85.93
2018-01-12T03:05:55.903Z,86.07
2018-01-12T03:06:29.582Z,100.50
2018-01-12T03:07:03.739Z,87.10
2018-01-12T03:07:38.317Z,99.37
2018-01-12T03:08:12.006Z,81.60
2018-01-12T03:08:45.683Z,90.40
2018-01-12T03:09:19.384Z,97.40
2018-01-12T03:09:53.058Z,87.10
2018-01-12T03:10:26.780Z,86.63
2018-01-12T03:11:00.471Z,88.68
2018-01-12T03:11:34.162Z,87.43
2018-01-12T03:12:07.854Z,85.35
2018-01-12T03:12:41.540Z,78.18
2018-01-12T03:13:15.230Z,90.12
2018-01-12T03:13:48.901Z,83.97
2018-01-12T03:14:22.569Z,94.10
2018-01-12T03:14:57.013Z,79.82
2018-01-12T03:15:30.742Z,82.55
2018-01-12T03:16:04.419Z,83.60
2018-01-12T03:16:37.761Z,82.62
2018-01-12T03:17:11.426Z,83.90
2018-01-12T03:17:45.876Z,77.70
2018-01-12T03:18:19.550Z,83.35
2018-01-12T03:18:53.237Z,75.10
2018-01-12T03:19:26.951Z,79.85
2018-01-12T03:20:00.638Z,75.10
2018-01-12T03:20:34.345Z,76.47
2018-01-12T03:21:08.015Z,77.07
2018-01-12T03:21:41.351Z,75.00
2018-01-12T03:22:15.806Z,74.55
2018-01-12T03:22:49.490Z,74.22
2018-01-12T03:23:23.184Z,79.25
2018-01-12T03:23:56.873Z,74.03
2018-01-12T03:24:30.569Z,81.20
2018-01-12T03:25:03.951Z,87.62
2018-01-12T03:25:37.656Z,73.78
2018-01-12T03:26:11.322Z,76.93
2018-01-12T03:26:44.993Z,79.85
2018-01-12T03:27:18.660Z,77.43
2018-01-12T03:27:53.103Z,71.90
2018-01-12T03:28:26.779Z,69.05
2018-01-12T03:29:00.443Z,73.37
2018-01-12T03:29:34.887Z,76.30
2018-01-12T03:30:08.555Z,76.87
2018-01-12T03:30:42.284Z,70.50
2018-01-12T03:31:15.966Z,71.80
2018-01-12T03:31:49.626Z,79.15
2018-01-12T03:32:23.303Z,70.47
2018-01-12T03:32:57.737Z,68.82
2018-01-12T03:33:31.420Z,72.20
2018-01-12T03:34:05.087Z,67.90
2018-01-12T03:34:39.526Z,66.78
2018-01-12T03:35:13.186Z,64.40
2018-01-12T03:35:47.663Z,75.10
2018-01-12T03:36:21.348Z,67.53
2018-01-12T03:36:55.013Z,76.35
2018-01-12T03:37:28.697Z,69.30
2018-01-12T03:38:02.372Z,70.07
2018-01-12T03:38:36.042Z,74.70
2018-01-12T03:39:10.467Z,69.90
2018-01-12T03:39:44.140Z,73.78
2018-01-12T03:40:18.578Z,75.47
2018-01-12T03:40:52.275Z,70.37
2018-01-12T03:41:25.948Z,62.60
2018-01-12T03:41:59.640Z,72.35
2018-01-12T03:42:33.306Z,72.85
2018-01-12T03:43:07.745Z,67.25
2018-01-12T03:43:41.402Z,64.60
2018-01-12T03:44:15.842Z,66.07
2018-01-12T03:44:49.518Z,74.12
2018-01-12T03:45:23.184Z,64.80
2018-01-12T03:45:58.000Z,63.65
2018-01-12T03:46:32.446Z,63.17
2018-01-12T03:47:06.100Z,63.78
2018-01-12T03:47:40.542Z,69.55
2018-01-12T03:48:14.205Z,64.70
2018-01-12T03:48:48.637Z,64.65
2018-01-12T03:49:22.293Z,66.65
2018-01-12T03:49:56.761Z,65.68
2018-01-12T03:50:30.445Z,67.90
2018-01-12T03:51:04.137Z,62.30
2018-01-12T03:51:37.835Z,64.20
2018-01-12T03:52:11.520Z,70.60
2018-01-12T03:52:45.193Z,69.60
2018-01-12T03:53:18.862Z,62.97
2018-01-12T03:53:52.526Z,67.87
2018-01-12T03:54:26.622Z,64.03
2018-01-12T03:55:00.294Z,63.45
2018-01-12T03:55:33.966Z,63.58
2018-01-12T03:56:07.664Z,71.35
2018-01-12T03:56:41.329Z,66.57
2018-01-12T03:57:15.007Z,65.68
2018-01-12T03:57:48.361Z,66.05
2018-01-12T03:58:22.794Z,63.92
2018-01-12T03:58:56.448Z,58.22
2018-01-12T03:59:30.893Z,56.05
2018-01-12T04:00:04.551Z,58.83
2018-01-12T04:00:38.986Z,59.70
2018-01-12T04:01:12.702Z,62.15
2018-01-12T04:01:46.369Z,61.97
2018-01-12T04:02:19.685Z,59.20
2018-01-12T04:02:53.361Z,61.13
2018-01-12T04:03:27.027Z,60.20
2018-01-12T04:04:00.690Z,57.75
2018-01-12T04:04:35.122Z,61.15
2018-01-12T04:05:08.786Z,62.92
2018-01-12T04:05:43.236Z,60.25
2018-01-12T04:06:16.944Z,59.75
2018-01-12T04:06:50.606Z,55.03
2018-01-12T04:07:24.285Z,58.33
2018-01-12T04:07:57.951Z,55.83
2018-01-12T04:08:32.390Z,53.78
2018-01-12T04:09:05.431Z,55.17
2018-01-12T04:09:39.092Z,62.90
2018-01-12T04:10:12.764Z,56.30
2018-01-12T04:10:46.490Z,51.53
2018-01-12T04:11:20.326Z,56.78
2018-01-12T04:11:53.999Z,62.20
2018-01-12T04:12:27.669Z,58.53
2018-01-12T04:13:02.105Z,53.78
2018-01-12T04:13:35.759Z,59.58
2018-01-12T04:14:09.419Z,57.83
2018-01-12T04:14:43.093Z,57.13
2018-01-12T04:15:16.580Z,52.83
2018-01-12T04:15:50.257Z,55.95
2018-01-12T04:16:24.009Z,58.35
2018-01-12T04:16:57.683Z,51.92
2018-01-12T04:17:31.352Z,54.47
2018-01-12T04:18:05.026Z,58.28
2018-01-12T04:18:38.702Z,53.65
2018-01-12T04:19:12.361Z,53.08
2018-01-12T04:19:46.788Z,67.12
2018-01-12T04:20:20.458Z,52.05
2018-01-12T04:20:54.890Z,47.08
2018-01-12T04:21:28.587Z,51.90
2018-01-12T04:22:02.270Z,47.13
2018-01-12T04:22:35.930Z,50.97
2018-01-12T04:23:10.361Z,47.80
2018-01-12T04:23:44.038Z,50.55
2018-01-12T04:24:18.487Z,49.20
2018-01-12T04:24:52.162Z,48.10
2018-01-12T04:25:25.868Z,49.72
2018-01-12T04:25:59.529Z,40.55
2018-01-12T04:26:33.213Z,45.60
2018-01-12T04:27:06.882Z,47.65
2018-01-12T04:27:41.318Z,48.50
2018-01-12T04:28:14.991Z,45.30
2018-01-12T04:28:49.569Z,45.40
2018-01-12T04:29:23.246Z,46.55
2018-01-12T04:29:56.924Z,40.25
2018-01-12T04:30:30.613Z,41.63
2018-01-12T04:31:04.418Z,46.40
2018-01-12T04:31:38.113Z,39.13
2018-01-12T04:32:11.794Z,38.05
2018-01-12T04:32:45.473Z,43.10
2018-01-12T04:33:19.162Z,44.80
2018-01-12T04:33:53.141Z,39.40
2018-01-12T04:34:26.806Z,42.45
2018-01-12T04:35:01.238Z,45.22
2018-01-12T04:35:34.903Z,40.17
2018-01-12T04:36:09.357Z,41.70
2018-01-12T04:36:43.055Z,42.83
2018-01-12T04:37:16.733Z,38.83
2018-01-12T04:37:50.406Z,42.50
2018-01-12T04:38:24.068Z,44.28
2018-01-12T04:38:58.503Z,41.95
2018-01-12T04:39:32.165Z,37.30
2018-01-12T04:40:05.852Z,36.53
2018-01-12T04:40:40.301Z,40.72
2018-01-12T04:41:14.014Z,36.35
2018-01-12T04:41:47.721Z,39.20
2018-01-12T04:42:21.393Z,40.40
2018-01-12T04:42:55.045Z,41.97
2018-01-12T04:43:28.714Z,38.15
2018-01-12T04:44:03.166Z,42.25
2018-01-12T04:44:36.854Z,41.83
2018-01-12T04:45:10.545Z,33.75
2018-01-12T04:45:44.228Z,33.63
2018-01-12T04:46:17.905Z,34.28
2018-01-12T04:46:51.670Z,37.20
2018-01-12T04:47:26.125Z,38.25
2018-01-12T04:47:59.813Z,35.90
2018-01-12T04:48:33.498Z,36.13
2018-01-12T04:49:07.192Z,33.67
2018-01-12T04:49:40.878Z,35.08
2018-01-12T04:50:14.567Z,35.17
2018-01-12T04:50:48.054Z,36.63
2018-01-12T04:51:21.726Z,33.83
2018-01-12T04:51:55.435Z,43.90
2018-01-12T04:52:29.187Z,37.85
2018-01-12T04:53:02.877Z,35.40
2018-01-12T04:53:36.598Z,35.08
2018-01-12T04:54:10.278Z,37.28
2018-01-12T04:54:43.991Z,39.58
2018-01-12T04:55:17.699Z,35.90
2018-01-12T04:55:51.418Z,35.28
2018-01-12T04:56:26.121Z,33.15
2018-01-12T04:57:00.591Z,36.33
2018-01-12T04:57:34.272Z,33.05
2018-01-12T04:58:07.977Z,33.63
2018-01-12T04:58:41.646Z,32.08
2018-01-12T04:59:15.310Z,31.95
2018-01-12T04:59:49.746Z,29.58
2018-01-12T05:00:23.419Z,30.48
2018-01-12T05:00:57.092Z,26.45
2018-01-12T05:01:31.543Z,30.30
2018-01-12T05:02:05.255Z,26.95
2018-01-12T05:02:38.923Z,26.62
2018-01-12T05:03:12.265Z,27.05
2018-01-12T05:03:45.951Z,24.17
2018-01-12T05:04:20.400Z,28.27
2018-01-12T05:04:54.081Z,26.35
2018-01-12T05:05:27.943Z,23.27
2018-01-12T05:06:02.382Z,27.37
2018-01-12T05:06:36.084Z,23.17
2018-01-12T05:07:09.771Z,25.73
2018-01-12T05:07:43.468Z,25.30
2018-01-12T05:08:17.140Z,22.95
2018-01-12T05:08:50.804Z,26.40
2018-01-12T05:09:24.492Z,24.00
2018-01-12T05:09:58.928Z,23.50
2018-01-12T05:10:32.607Z,21.90
2018-01-12T05:11:06.274Z,25.33
2018-01-12T05:11:40.723Z,23.75
2018-01-12T05:12:14.465Z,23.30
2018-01-12T05:12:48.915Z,24.27
2018-01-12T05:13:22.591Z,27.15
2018-01-12T05:13:56.267Z,22.60
2018-01-12T05:14:30.711Z,24.00
2018-01-12T05:15:04.048Z,25.73
2018-01-12T05:15:38.490Z,22.27
2018-01-12T05:16:12.225Z,22.02
2018-01-12T05:16:45.926Z,22.25
2018-01-12T05:17:19.622Z,24.50
2018-01-12T05:17:54.063Z,24.17
2018-01-12T05:18:27.745Z,26.48
2018-01-12T05:19:01.416Z,21.98
2018-01-12T05:19:35.862Z,25.65
2018-01-12T05:20:09.563Z,25.52
2018-01-12T05:20:43.242Z,26.87
2018-01-12T05:21:16.934Z,22.27
2018-01-12T05:21:50.611Z,23.67
2018-01-12T05:22:24.304Z,26.25
2018-01-12T05:22:57.992Z,24.98
2018-01-12T05:23:31.679Z,25.42
2018-01-12T05:24:05.343Z,24.85
2018-01-12T05:24:39.798Z,31.92
2018-01-12T05:25:13.490Z,24.10
2018-01-12T05:25:47.157Z,26.33
2018-01-12T05:26:20.857Z,29.60
2018-01-12T05:26:54.530Z,26.40
2018-01-12T05:27:28.227Z,23.85
2018-01-12T05:28:01.881Z,24.52
2018-01-12T05:28:36.334Z,28.95
2018-01-12T05:29:09.701Z,25.17
2018-01-12T05:29:43.361Z,25.70
2018-01-12T05:30:17.798Z,26.37
2018-01-12T05:30:51.490Z,22.62
2018-01-12T05:31:25.148Z,27.40
2018-01-12T05:31:59.598Z,25.05
2018-01-12T05:32:33.595Z,28.42
2018-01-12T05:33:07.277Z,27.55
2018-01-12T05:33:40.964Z,26.02
2018-01-12T05:34:14.626Z,27.98
2018-01-12T05:34:49.086Z,26.92
2018-01-12T05:35:22.776Z,25.50
2018-01-12T05:35:56.455Z,26.15
2018-01-12T05:36:30.155Z,25.48
2018-01-12T05:37:03.165Z,32.00
2018-01-12T05:37:37.630Z,32.45
2018-01-12T05:38:11.308Z,30.65
2018-01-12T05:38:44.802Z,30.00
2018-01-12T05:39:17.983Z,26.65
2018-01-12T05:39:52.288Z,27.52
2018-01-12T05:40:25.998Z,28.85
2018-01-12T05:40:59.653Z,26.85
2018-01-12T05:41:33.333Z,31.65
2018-01-12T05:42:06.990Z,26.73
2018-01-12T05:42:41.602Z,30.17
2018-01-12T05:43:16.469Z,32.10
2018-01-12T05:43:50.143Z,28.08
2018-01-12T05:44:23.797Z,26.30
2018-01-12T05:44:58.233Z,28.30
2018-01-12T05:45:31.724Z,30.37
2018-01-12T05:46:05.377Z,27.17
2018-01-12T05:46:39.819Z,28.42
2018-01-12T05:47:13.473Z,26.37
2018-01-12T05:47:48.285Z,31.45
2018-01-12T05:48:21.949Z,26.75
2018-01-12T05:48:55.613Z,31.23
2018-01-12T05:49:29.291Z,36.50
2018-01-12T05:50:02.950Z,30.67
2018-01-12T05:50:37.603Z,26.40
2018-01-12T05:51:11.287Z,37.17
2018-01-12T05:51:44.941Z,29.63
2018-01-12T05:52:19.373Z,32.22
2018-01-12T05:52:53.136Z,29.75
2018-01-12T05:53:27.576Z,30.67
2018-01-12T05:54:01.230Z,27.25
2018-01-12T05:54:35.670Z,33.85
2018-01-12T05:55:09.326Z,29.90
2018-01-12T05:55:42.990Z,28.45
2018-01-12T05:56:16.655Z,28.48
2018-01-12T05:56:50.325Z,28.05
2018-01-12T05:57:23.984Z,27.15
2018-01-12T05:57:58.799Z,28.30
2018-01-12T05:58:32.506Z,28.33
2018-01-12T05:59:06.329Z,27.45
2018-01-12T05:59:39.992Z,29.25
2018-01-12T06:00:13.674Z,32.72
2018-01-12T06:00:59.425Z,26.35
2018-01-12T06:01:45.262Z,37.42
2018-01-12T06:02:30.066Z,31.60
2018-01-12T06:03:15.704Z,31.77
2018-01-12T06:04:00.478Z,31.70
2018-01-12T06:04:45.432Z,29.00
2018-01-12T06:05:30.916Z,32.33
2018-01-12T06:07:05.714Z,26.02
2018-01-12T06:07:39.409Z,30.30
2018-01-12T06:08:13.074Z,35.50
2018-01-12T06:08:46.764Z,28.00
2018-01-12T06:09:20.441Z,30.00
2018-01-12T06:09:54.125Z,31.77
2018-01-12T06:10:27.798Z,32.30
2018-01-12T06:11:01.487Z,32.60
2018-01-12T06:11:35.166Z,30.20
2018-01-12T06:12:08.842Z,26.80
2018-01-12T06:12:43.307Z,29.60
2018-01-12T06:13:16.684Z,31.23
2018-01-12T06:13:50.408Z,27.15
2018-01-12T06:14:24.071Z,27.08
2018-01-12T06:14:57.753Z,25.73
2018-01-12T06:15:31.448Z,29.65
2018-01-12T06:16:05.109Z,28.77
2018-01-12T06:16:38.769Z,28.52
2018-01-12T06:17:13.201Z,29.83
2018-01-12T06:17:46.899Z,33.20
2018-01-12T06:18:20.581Z,26.58
2018-01-12T06:18:54.296Z,26.27
2018-01-12T06:19:27.981Z,25.33
2018-01-12T06:20:01.670Z,25.60
2018-01-12T06:20:35.356Z,27.58
2018-01-12T06:21:09.061Z,27.00
2018-01-12T06:21:42.736Z,26.90
2018-01-12T06:22:16.410Z,24.77
2018-01-12T06:22:50.075Z,26.40
2018-01-12T06:23:24.518Z,28.25
2018-01-12T06:23:58.219Z,25.55
2018-01-12T06:24:31.898Z,29.20
2018-01-12T06:25:05.563Z,27.75
2018-01-12T06:25:39.249Z,26.48
2018-01-12T06:26:13.682Z,28.05
2018-01-12T06:26:47.345Z,25.83
2018-01-12T06:27:21.779Z,26.98
2018-01-12T06:27:55.528Z,27.58
2018-01-12T06:28:29.926Z,25.80
2018-01-12T06:29:03.620Z,26.02
2018-01-12T06:29:37.279Z,24.10
2018-01-12T06:30:10.973Z,22.95
2018-01-12T06:30:44.650Z,25.75
2018-01-12T06:31:18.313Z,28.40
2018-01-12T06:31:51.968Z,34.35
2018-01-12T06:32:25.665Z,25.23
2018-01-12T06:32:59.758Z,24.45
2018-01-12T06:33:33.447Z,25.88
2018-01-12T06:34:07.914Z,25.42
2018-01-12T06:34:41.589Z,27.17
2018-01-12T06:35:15.433Z,28.85
2018-01-12T06:35:49.107Z,30.95
2018-01-12T06:36:22.768Z,29.80
2018-01-12T06:36:56.439Z,27.35
2018-01-12T06:37:30.105Z,31.92
2018-01-12T06:38:04.197Z,27.50
2018-01-12T06:38:38.645Z,29.45
2018-01-12T06:39:12.363Z,25.65
2018-01-12T06:39:46.031Z,27.25
2018-01-12T06:40:19.708Z,24.87
2018-01-12T06:40:53.459Z,29.52
2018-01-12T06:41:27.134Z,26.27
2018-01-12T06:42:00.798Z,29.15
2018-01-12T06:42:34.477Z,28.00
2018-01-12T06:43:08.138Z,29.45
2018-01-12T06:43:42.573Z,24.90
2018-01-12T06:44:16.320Z,28.05
2018-01-12T06:44:50.770Z,24.95
2018-01-12T06:45:24.450Z,29.52
2018-01-12T06:45:58.118Z,25.12
2018-01-12T06:46:32.557Z,30.08
2018-01-12T06:47:06.246Z,25.42
2018-01-12T06:47:39.921Z,28.23
2018-01-12T06:48:13.582Z,27.15
2018-01-12T06:48:48.017Z,30.45
2018-01-12T06:49:21.991Z,24.08
2018-01-12T06:49:56.435Z,27.55
2018-01-12T06:50:30.111Z,24.35
2018-01-12T06:51:03.786Z,26.80
2018-01-12T06:51:38.221Z,27.67
2018-01-12T06:52:11.887Z,27.85
2018-01-12T06:52:45.558Z,24.70
2018-01-12T06:53:20.011Z,34.35
2018-01-12T06:53:53.670Z,25.10
2018-01-12T06:54:28.130Z,28.02
2018-01-12T06:55:01.816Z,26.58
2018-01-12T06:55:35.489Z,25.33
2018-01-12T06:56:09.156Z,25.30
2018-01-12T06:56:42.835Z,27.48
2018-01-12T06:57:17.083Z,25.92
2018-01-12T06:57:50.758Z,34.13
2018-01-12T06:58:24.426Z,30.10
2018-01-12T06:58:58.106Z,26.50
2018-01-12T06:59:32.575Z,24.33
2018-01-12T07:00:05.924Z,28.60
2018-01-12T07:00:39.586Z,21.23
2018-01-12T07:01:14.022Z,25.58
2018-01-12T07:01:47.689Z,24.30
2018-01-12T07:02:21.358Z,23.92
2018-01-12T07:02:55.805Z,30.02
2018-01-12T07:03:29.469Z,23.25
2018-01-12T07:04:03.902Z,23.40
2018-01-12T07:04:37.615Z,26.05
2018-01-12T07:05:11.449Z,28.52
2018-01-12T07:05:45.113Z,23.33
2018-01-12T07:06:18.842Z,28.48
2018-01-12T07:06:53.283Z,25.37
2018-01-12T07:07:26.962Z,22.87
2018-01-12T07:08:00.674Z,25.27
2018-01-12T07:08:34.346Z,26.92
2018-01-12T07:09:07.825Z,27.27
2018-01-12T07:09:41.540Z,27.25
2018-01-12T07:10:15.242Z,39.03
2018-01-12T07:10:48.958Z,24.30
2018-01-12T07:11:23.215Z,37.30
2018-01-12T07:11:56.723Z,33.17
2018-01-12T07:12:30.581Z,41.88
2018-01-12T07:13:04.256Z,31.45
2018-01-12T07:13:37.938Z,28.73
2018-01-12T07:14:11.435Z,24.50
2018-01-12T07:14:44.962Z,27.15
2018-01-12T07:15:18.625Z,35.30
2018-01-12T07:15:52.289Z,35.40
2018-01-12T07:16:25.979Z,35.58
2018-01-12T07:16:59.649Z,30.55
2018-01-12T07:17:33.308Z,29.10
2018-01-12T07:18:06.977Z,28.17
2018-01-12T07:18:40.650Z,34.97
2018-01-12T07:19:14.321Z,36.33
2018-01-12T07:19:48.793Z,36.80
2018-01-12T07:20:33.682Z,26.12
2018-01-12T07:21:19.271Z,40.05
2018-01-12T07:22:04.157Z,36.30
2018-01-12T07:22:49.055Z,48.40